createdAt,value
2022-10-01T00:02:26.473Z,9.43
2022-10-01T00:04:52.887Z,9.40
2022-10-01T00:07:19.283Z,9.35
2022-10-01T00:09:46.478Z,9.36
2022-10-01T00:12:15.718Z,9.32
2022-10-01T00:14:42.094Z,9.37
2022-10-01T00:17:08.521Z,9.36
2022-10-01T00:19:34.887Z,9.50
2022-10-01T00:22:01.416Z,9.54
2022-10-01T00:24:28.120Z,9.50
2022-10-01T00:26:54.502Z,9.46
2022-10-01T00:29:20.893Z,9.45
2022-10-01T00:31:47.309Z,9.41
2022-10-01T00:34:15.427Z,9.40
2022-10-01T00:36:42.305Z,9.45
2022-10-01T00:39:11.146Z,9.40
2022-10-01T00:41:37.920Z,9.42
2022-10-01T00:44:28.866Z,9.41
2022-10-01T00:46:58.336Z,9.35
2022-10-01T00:49:27.575Z,9.43
2022-10-01T00:51:59.189Z,9.33
2022-10-01T00:54:46.595Z,9.40
2022-10-01T00:57:16.705Z,9.40
2022-10-01T00:59:43.376Z,9.35
2022-10-01T01:02:11.020Z,9.36
2022-10-01T01:04:39.941Z,9.35
2022-10-01T01:07:07.567Z,9.36
2022-10-01T01:09:42.658Z,9.38
2022-10-01T01:12:36.144Z,9.30
2022-10-01T01:15:14.238Z,9.39
2022-10-01T01:18:12.922Z,9.31
2022-10-01T01:21:04.603Z,9.29
2022-10-01T01:23:38.868Z,9.24
2022-10-01T01:26:33.066Z,9.23
2022-10-01T01:29:06.606Z,9.18
2022-10-01T01:31:39.081Z,9.26
2022-10-01T01:34:12.518Z,9.27
2022-10-01T01:36:44.975Z,9.26
2022-10-01T01:39:15.115Z,9.20
2022-10-01T01:41:49.903Z,9.25
2022-10-01T01:44:22.090Z,9.20
2022-10-01T01:46:50.075Z,9.27
2022-10-01T01:49:20.116Z,9.23
2022-10-01T01:51:59.436Z,9.26
2022-10-01T01:54:25.945Z,9.22
2022-10-01T01:56:53.737Z,9.20
2022-10-01T01:59:20.473Z,9.26
2022-10-01T02:01:49.231Z,9.19
2022-10-01T02:04:25.328Z,9.25
2022-10-01T02:07:17.333Z,9.19
2022-10-01T02:09:53.218Z,9.14
2022-10-01T02:12:37.213Z,9.14
2022-10-01T02:15:17.161Z,9.11
2022-10-01T02:18:08.493Z,9.20
2022-10-01T02:21:00.871Z,9.06
2022-10-01T02:23:36.080Z,9.09
2022-10-01T02:26:10.883Z,9.09
2022-10-01T02:28:39.690Z,9.07
2022-10-01T02:31:07.532Z,9.07
2022-10-01T02:33:36.805Z,9.05
2022-10-01T02:36:06.126Z,9.12
2022-10-01T02:38:36.703Z,9.15
2022-10-01T02:41:05.887Z,9.16
2022-10-01T02:43:42.736Z,9.07
2022-10-01T02:46:28.350Z,9.26
2022-10-01T02:48:55.642Z,9.26
2022-10-01T02:51:37.399Z,9.33
2022-10-01T02:54:17.225Z,9.40
2022-10-01T02:57:02.385Z,9.40
2022-10-01T02:59:28.781Z,9.42
2022-10-01T03:01:55.275Z,9.41
2022-10-01T03:04:21.748Z,9.42
2022-10-01T03:06:48.141Z,9.46
2022-10-01T03:09:14.527Z,9.53
2022-10-01T03:11:42.045Z,9.50
2022-10-01T03:14:10.234Z,9.59
2022-10-01T03:16:36.990Z,9.57
2022-10-01T03:19:03.520Z,9.59
2022-10-01T03:21:29.935Z,9.67
2022-10-01T03:23:56.343Z,9.68
2022-10-01T03:26:22.751Z,9.70
2022-10-01T03:28:49.126Z,9.54
2022-10-01T03:31:15.584Z,9.70
2022-10-01T03:33:42.006Z,9.68
2022-10-01T03:36:08.388Z,9.64
2022-10-01T03:38:34.790Z,9.63
2022-10-01T03:41:01.174Z,9.71
2022-10-01T03:43:29.044Z,9.65
2022-10-01T03:45:56.535Z,9.71
2022-10-01T03:48:23.399Z,9.78
2022-10-01T03:50:58.362Z,9.67
2022-10-01T03:53:27.170Z,9.76
2022-10-01T03:55:54.520Z,9.69
2022-10-01T03:58:21.097Z,9.75
2022-10-01T04:00:48.112Z,9.77
2022-10-01T04:03:15.705Z,9.78
2022-10-01T04:05:43.606Z,9.64
2022-10-01T04:08:11.015Z,9.60
2022-10-01T04:10:37.702Z,9.71
2022-10-01T04:13:04.792Z,9.72
2022-10-01T04:15:32.690Z,9.73
2022-10-01T04:17:59.895Z,9.75
2022-10-01T04:20:26.288Z,9.73
2022-10-01T04:22:53.063Z,9.71
2022-10-01T04:25:19.469Z,9.75
2022-10-01T04:28:00.920Z,9.69
2022-10-01T04:30:30.167Z,9.60
2022-10-01T04:32:56.676Z,9.68
2022-10-01T04:35:23.658Z,9.72
2022-10-01T04:38:16.917Z,9.81
2022-10-01T04:40:43.601Z,9.68
2022-10-01T04:43:11.405Z,9.69
2022-10-01T04:45:38.047Z,9.70
2022-10-01T04:48:05.166Z,9.70
2022-10-01T04:50:32.270Z,9.68
2022-10-01T04:52:58.861Z,9.62
2022-10-01T04:55:25.264Z,9.68
2022-10-01T04:57:51.634Z,9.81
2022-10-01T05:00:21.745Z,9.73
2022-10-01T05:02:50.108Z,9.67
2022-10-01T05:05:18.862Z,9.80
2022-10-01T05:07:46.069Z,9.81
2022-10-01T05:10:14.961Z,9.72
2022-10-01T05:12:43.013Z,9.76
2022-10-01T05:15:09.997Z,9.85
2022-10-01T05:17:36.465Z,9.79
2022-10-01T05:20:05.741Z,9.87
2022-10-01T05:22:32.186Z,9.76
2022-10-01T05:25:00.215Z,9.79
2022-10-01T05:27:27.739Z,9.69
2022-10-01T05:29:54.212Z,9.67
2022-10-01T05:32:20.593Z,9.66
2022-10-01T05:34:51.195Z,9.70
2022-10-01T05:37:19.820Z,9.79
2022-10-01T05:39:46.232Z,9.74
2022-10-01T05:42:12.627Z,9.85
2022-10-01T05:44:40.728Z,9.90
2022-10-01T05:47:07.200Z,9.83
2022-10-01T05:49:33.948Z,9.96
2022-10-01T05:52:01.020Z,9.81
2022-10-01T05:54:29.579Z,9.80
2022-10-01T05:56:57.143Z,9.98
2022-10-01T05:59:25.498Z,9.90
2022-10-01T06:01:53.870Z,9.83
2022-10-01T06:04:20.353Z,10.02
2022-10-01T06:06:46.884Z,9.98
2022-10-01T06:09:13.882Z,9.98
2022-10-01T06:11:40.295Z,9.99
2022-10-01T06:14:07.216Z,10.09
2022-10-01T06:16:33.714Z,10.12
2022-10-01T06:19:00.674Z,10.23
2022-10-01T06:21:27.486Z,10.19
2022-10-01T06:23:54.539Z,10.13
2022-10-01T06:26:21.402Z,10.25
2022-10-01T06:28:51.068Z,10.25
2022-10-01T06:31:18.488Z,10.26
2022-10-01T06:33:44.929Z,10.23
2022-10-01T06:36:11.323Z,10.35
2022-10-01T06:38:37.688Z,10.34
2022-10-01T06:41:05.179Z,10.42
2022-10-01T06:43:32.810Z,10.39
2022-10-01T06:46:03.761Z,10.41
2022-10-01T06:48:30.944Z,10.45
2022-10-01T06:50:58.366Z,10.41
2022-10-01T06:53:26.439Z,10.57
2022-10-01T06:55:52.885Z,10.62
2022-10-01T06:58:21.591Z,10.62
2022-10-01T07:00:49.193Z,10.62
2022-10-01T07:03:21.213Z,10.66
2022-10-01T07:05:48.768Z,10.75
2022-10-01T07:08:16.324Z,10.72
2022-10-01T07:10:44.061Z,10.72
2022-10-01T07:13:16.636Z,10.76
2022-10-01T07:15:43.683Z,10.76
2022-10-01T07:18:10.921Z,10.75
2022-10-01T07:20:41.482Z,10.84
2022-10-01T07:23:11.546Z,10.92
2022-10-01T07:25:40.253Z,10.90
2022-10-01T07:28:16.019Z,11.05
2022-10-01T07:30:56.338Z,11.13
2022-10-01T07:33:22.719Z,11.18
2022-10-01T07:35:49.285Z,11.23
2022-10-01T07:38:15.728Z,11.24
2022-10-01T07:40:42.154Z,11.30
2022-10-01T07:43:09.089Z,11.24
2022-10-01T07:45:35.789Z,11.33
2022-10-01T07:48:03.406Z,11.37
2022-10-01T07:50:30.571Z,11.43
2022-10-01T07:52:58.691Z,11.46
2022-10-01T07:55:27.791Z,11.53
2022-10-01T07:57:55.821Z,11.55
2022-10-01T08:00:26.449Z,11.64
2022-10-01T08:02:55.923Z,11.69
2022-10-01T08:05:29.039Z,11.78
2022-10-01T08:08:03.802Z,11.83
2022-10-01T08:10:30.963Z,11.88
2022-10-01T08:13:14.245Z,11.89
2022-10-01T08:15:42.316Z,11.99
2022-10-01T08:18:08.711Z,12.10
2022-10-01T08:20:35.258Z,12.12
2022-10-01T08:23:07.104Z,12.03
2022-10-01T08:25:33.940Z,12.06
2022-10-01T08:28:00.534Z,12.07
2022-10-01T08:30:27.614Z,12.18
2022-10-01T08:32:58.157Z,12.14
2022-10-01T08:35:25.759Z,12.25
2022-10-01T08:37:52.267Z,12.28
2022-10-01T08:40:21.602Z,12.33
2022-10-01T08:42:59.902Z,12.38
2022-10-01T08:45:34.539Z,12.40
2022-10-01T08:48:09.220Z,12.40
2022-10-01T08:50:52.902Z,12.42
2022-10-01T08:53:33.488Z,12.50
2022-10-01T08:56:01.991Z,12.64
2022-10-01T08:58:35.215Z,12.74
2022-10-01T09:01:01.645Z,12.85
2022-10-01T09:03:31.006Z,12.93
2022-10-01T09:06:26.123Z,13.08
2022-10-01T09:09:10.839Z,13.07
2022-10-01T09:11:51.489Z,13.04
2022-10-01T09:14:54.817Z,13.21
2022-10-01T09:17:44.392Z,13.23
2022-10-01T09:20:29.330Z,13.27
2022-10-01T09:23:15.353Z,13.32
2022-10-01T09:25:44.641Z,13.32
2022-10-01T09:28:16.958Z,13.30
2022-10-01T09:30:54.800Z,13.30
2022-10-01T09:33:25.157Z,13.31
2022-10-01T09:36:01.410Z,13.39
2022-10-01T09:38:41.564Z,13.41
2022-10-01T09:41:10.367Z,13.27
2022-10-01T09:43:43.582Z,13.23
2022-10-01T09:46:15.430Z,13.22
2022-10-01T09:49:05.171Z,13.10
2022-10-01T09:51:45.218Z,13.09
2022-10-01T09:54:32.290Z,12.97
2022-10-01T09:57:05.911Z,13.03
2022-10-01T09:59:47.251Z,13.06
2022-10-01T10:02:26.853Z,12.93
2022-10-01T10:05:05.228Z,13.04
2022-10-01T10:07:34.721Z,13.04
2022-10-01T10:10:29.681Z,12.87
2022-10-01T10:12:59.081Z,12.88
2022-10-01T10:15:26.336Z,12.72
2022-10-01T10:17:54.572Z,12.74
2022-10-01T10:20:39.631Z,12.78
2022-10-01T10:23:28.922Z,12.55
2022-10-01T10:26:04.469Z,12.54
2022-10-01T10:28:45.930Z,12.51
2022-10-01T10:31:19.824Z,12.51
2022-10-01T10:33:51.188Z,12.42
2022-10-01T10:36:19.644Z,12.36
2022-10-01T10:38:49.683Z,12.28
2022-10-01T10:41:19.706Z,12.23
2022-10-01T10:43:48.992Z,12.31
2022-10-01T10:46:29.592Z,12.32
2022-10-01T10:49:01.020Z,12.22
2022-10-01T10:51:28.240Z,12.24
2022-10-01T10:53:54.671Z,12.19
2022-10-01T10:56:23.800Z,12.30
2022-10-01T10:58:53.986Z,12.32
2022-10-01T11:01:29.886Z,12.34
2022-10-01T11:04:00.872Z,12.38
2022-10-01T11:06:27.661Z,12.37
2022-10-01T11:09:04.739Z,12.36
2022-10-01T11:11:54.957Z,12.40
2022-10-01T11:14:57.451Z,12.44
2022-10-01T11:17:51.215Z,12.38
2022-10-01T11:20:30.113Z,12.33
2022-10-01T11:23:24.810Z,12.31
2022-10-01T11:26:09.937Z,12.42
2022-10-01T11:28:48.026Z,12.40
2022-10-01T11:31:36.264Z,12.46
2022-10-01T11:34:37.790Z,12.11
2022-10-01T11:37:31.814Z,12.34
2022-10-01T11:40:03.378Z,12.21
2022-10-01T11:42:35.592Z,12.40
2022-10-01T11:45:11.172Z,12.35
2022-10-01T11:47:44.233Z,12.30
2022-10-01T11:50:20.508Z,12.32
2022-10-01T11:53:05.162Z,12.22
2022-10-01T11:56:26.991Z,12.33
2022-10-01T11:59:01.076Z,12.45
2022-10-01T12:01:51.409Z,12.52
2022-10-01T12:04:32.828Z,12.51
2022-10-01T12:07:11.123Z,12.38
2022-10-01T12:10:16.450Z,12.43
2022-10-01T12:12:49.719Z,12.24
2022-10-01T12:15:26.757Z,12.21
2022-10-01T12:17:59.907Z,12.25
2022-10-01T12:20:32.820Z,12.31
2022-10-01T12:23:02.284Z,12.33
2022-10-01T12:25:43.212Z,12.41
2022-10-01T12:28:16.396Z,12.42
2022-10-01T12:30:53.854Z,12.41
2022-10-01T12:33:35.897Z,12.37
2022-10-01T12:36:16.208Z,12.43
2022-10-01T12:39:04.330Z,12.25
2022-10-01T12:42:05.248Z,12.40
2022-10-01T12:44:49.079Z,12.44
2022-10-01T12:47:39.031Z,12.32
2022-10-01T12:50:25.269Z,12.22
2022-10-01T12:53:17.564Z,12.20
2022-10-01T12:56:05.165Z,12.40
2022-10-01T12:59:06.129Z,12.45
2022-10-01T13:01:53.410Z,12.53
2022-10-01T13:04:36.952Z,12.54
2022-10-01T13:07:18.340Z,12.46
2022-10-01T13:10:11.352Z,12.51
2022-10-01T13:12:56.501Z,12.55
2022-10-01T13:15:31.868Z,12.62
2022-10-01T13:18:29.999Z,12.67
2022-10-01T13:21:05.584Z,12.77
2022-10-01T13:24:13.147Z,12.67
2022-10-01T13:26:43.299Z,12.68
2022-10-01T13:29:43.020Z,12.78
2022-10-01T13:32:55.314Z,12.76
2022-10-01T13:35:34.378Z,12.92
2022-10-01T13:38:14.263Z,12.90
2022-10-01T13:40:40.707Z,13.02
2022-10-01T13:43:20.025Z,13.01
2022-10-01T13:45:49.149Z,13.09
2022-10-01T13:48:35.220Z,13.07
2022-10-01T13:51:11.587Z,13.15
2022-10-01T13:53:41.026Z,13.13
2022-10-01T13:56:09.490Z,13.16
2022-10-01T13:58:40.880Z,13.17
2022-10-01T14:01:29.452Z,13.24
2022-10-01T14:04:21.040Z,13.33
2022-10-01T14:06:50.817Z,13.25
2022-10-01T14:09:23.500Z,13.21
2022-10-01T14:12:19.916Z,13.33
2022-10-01T14:15:16.696Z,13.37
2022-10-01T14:17:54.853Z,13.31
2022-10-01T14:20:27.206Z,13.45
2022-10-01T14:23:09.077Z,13.49
2022-10-01T14:25:54.099Z,13.45
2022-10-01T14:28:45.946Z,13.50
2022-10-01T14:31:33.039Z,13.54
2022-10-01T14:34:27.022Z,13.53
2022-10-01T14:36:55.470Z,13.55
2022-10-01T14:39:26.237Z,13.56
2022-10-01T14:41:54.483Z,13.53
2022-10-01T14:44:28.487Z,13.62
2022-10-01T14:46:57.290Z,13.66
2022-10-01T14:49:27.085Z,13.62
2022-10-01T14:52:20.276Z,13.67
2022-10-01T14:55:00.496Z,13.72
2022-10-01T14:57:39.700Z,13.67
2022-10-01T15:00:11.360Z,13.67
2022-10-01T15:02:46.840Z,13.74
2022-10-01T15:05:27.588Z,13.79
2022-10-01T15:07:53.972Z,13.58
2022-10-01T15:10:26.812Z,13.75
2022-10-01T15:12:56.062Z,13.75
2022-10-01T15:15:33.550Z,13.78
2022-10-01T15:18:03.111Z,13.80
2022-10-01T15:20:29.859Z,13.75
2022-10-01T15:23:01.230Z,13.81
2022-10-01T15:25:30.007Z,13.84
2022-10-01T15:27:56.726Z,13.90
2022-10-01T15:30:26.463Z,13.84
2022-10-01T15:32:53.310Z,13.96
2022-10-01T15:35:22.886Z,14.00
2022-10-01T15:37:51.686Z,13.97
2022-10-01T15:40:23.230Z,14.00
2022-10-01T15:43:07.843Z,13.98
2022-10-01T15:45:35.318Z,14.04
2022-10-01T15:48:01.773Z,14.03
2022-10-01T15:50:36.455Z,14.03
2022-10-01T15:53:15.746Z,14.07
2022-10-01T15:55:43.874Z,14.13
2022-10-01T15:58:10.226Z,14.14
2022-10-01T16:00:52.724Z,14.01
2022-10-01T16:03:38.766Z,14.12
2022-10-01T16:06:15.635Z,14.09
2022-10-01T16:09:18.875Z,14.09
2022-10-01T16:11:57.639Z,13.90
2022-10-01T16:14:23.983Z,13.94
2022-10-01T16:16:50.813Z,13.96
2022-10-01T16:19:29.559Z,13.97
2022-10-01T16:22:19.657Z,13.99
2022-10-01T16:24:51.436Z,13.97
2022-10-01T16:27:20.622Z,13.91
2022-10-01T16:30:14.467Z,13.88
2022-10-01T16:32:40.860Z,13.81
2022-10-01T16:35:17.523Z,13.81
2022-10-01T16:37:45.568Z,13.82
2022-10-01T16:40:16.013Z,13.86
2022-10-01T16:42:43.902Z,13.80
2022-10-01T16:45:19.284Z,13.66
2022-10-01T16:47:46.159Z,13.83
2022-10-01T16:50:14.890Z,13.76
2022-10-01T16:52:41.299Z,13.82
2022-10-01T16:55:22.500Z,13.79
2022-10-01T16:57:56.195Z,13.81
2022-10-01T17:00:25.819Z,13.77
2022-10-01T17:02:52.972Z,13.73
2022-10-01T17:05:22.684Z,13.73
2022-10-01T17:07:49.482Z,13.73
2022-10-01T17:10:17.664Z,13.74
2022-10-01T17:12:44.539Z,13.72
2022-10-01T17:15:15.762Z,13.82
2022-10-01T17:17:42.173Z,13.85
2022-10-01T17:20:09.274Z,13.75
2022-10-01T17:22:35.678Z,13.79
2022-10-01T17:25:02.088Z,13.74
2022-10-01T17:27:28.487Z,13.89
2022-10-01T17:29:56.413Z,13.88
2022-10-01T17:32:22.881Z,13.86
2022-10-01T17:34:49.679Z,13.85
2022-10-01T17:37:16.087Z,13.75
2022-10-01T17:39:43.042Z,13.85
2022-10-01T17:42:10.150Z,13.90
2022-10-01T17:44:36.562Z,13.92
2022-10-01T17:47:04.324Z,13.94
2022-10-01T17:49:30.734Z,13.89
2022-10-01T17:51:57.110Z,13.87
2022-10-01T17:54:23.535Z,13.85
2022-10-01T17:56:52.602Z,13.91
2022-10-01T17:59:19.099Z,13.89
2022-10-01T18:01:45.567Z,13.87
2022-10-01T18:04:14.924Z,13.89
2022-10-01T18:06:41.371Z,13.90
2022-10-01T18:09:07.848Z,13.92
2022-10-01T18:11:34.234Z,13.89
2022-10-01T18:14:00.628Z,13.80
2022-10-01T18:16:27.423Z,13.81
2022-10-01T18:21:42.335Z,13.84
2022-10-01T18:24:08.751Z,13.82
2022-10-01T18:26:35.402Z,13.85
2022-10-01T18:29:02.011Z,13.73
2022-10-01T18:31:37.531Z,13.65
2022-10-01T18:34:15.350Z,13.76
2022-10-01T18:37:05.790Z,13.60
2022-10-01T18:39:39.989Z,13.68
2022-10-01T18:42:24.695Z,13.71
2022-10-01T18:44:59.843Z,13.71
2022-10-01T18:47:55.635Z,13.73
2022-10-01T18:50:31.424Z,13.79
2022-10-01T18:53:05.204Z,13.69
2022-10-01T18:56:03.007Z,13.63
2022-10-01T18:58:52.181Z,13.70
2022-10-01T19:01:40.090Z,13.46
2022-10-01T19:04:34.623Z,13.49
2022-10-01T19:07:42.559Z,13.41
2022-10-01T19:10:35.481Z,13.29
2022-10-01T19:13:13.665Z,13.44
2022-10-01T19:16:04.645Z,13.34
2022-10-01T19:18:45.993Z,13.25
2022-10-01T19:21:39.410Z,13.27
2022-10-01T19:24:21.858Z,13.30
2022-10-01T19:27:00.463Z,13.14
2022-10-01T19:30:05.750Z,13.18
2022-10-01T19:33:02.109Z,13.14
2022-10-01T19:35:36.075Z,13.17
2022-10-01T19:38:18.448Z,13.02
2022-10-01T19:41:01.306Z,13.04
2022-10-01T19:43:40.404Z,13.11
2022-10-01T19:46:17.352Z,13.14
2022-10-01T19:48:49.146Z,12.99
2022-10-01T19:51:20.911Z,13.06
2022-10-01T19:53:51.873Z,13.16
2022-10-01T19:56:24.079Z,12.88
2022-10-01T19:58:50.658Z,12.79
2022-10-01T20:01:20.867Z,12.77
2022-10-01T20:04:02.786Z,12.83
2022-10-01T20:06:33.802Z,12.89
2022-10-01T20:09:08.658Z,12.84
2022-10-01T20:11:55.658Z,12.66
2022-10-01T20:15:02.646Z,12.70
2022-10-01T20:18:04.844Z,12.59
2022-10-01T20:20:39.308Z,12.69
2022-10-01T20:23:36.687Z,12.43
2022-10-01T20:26:17.218Z,12.36
2022-10-01T20:28:56.489Z,12.54
2022-10-01T20:31:33.203Z,12.42
2022-10-01T20:34:24.692Z,12.51
2022-10-01T20:37:35.017Z,12.45
2022-10-01T20:40:24.917Z,12.42
2022-10-01T20:42:59.890Z,12.18
2022-10-01T20:45:29.715Z,12.39
2022-10-01T20:48:01.381Z,12.27
2022-10-01T20:50:34.628Z,12.38
2022-10-01T20:53:09.720Z,12.24
2022-10-01T20:55:45.908Z,12.18
2022-10-01T20:58:18.278Z,12.26
2022-10-01T21:00:46.764Z,12.12
2022-10-01T21:03:24.076Z,12.07
2022-10-01T21:05:53.583Z,12.17
2022-10-01T21:08:53.533Z,12.12
2022-10-01T21:11:33.326Z,12.17
2022-10-01T21:14:33.065Z,12.22
2022-10-01T21:17:13.810Z,12.13
2022-10-01T21:19:56.746Z,12.19
2022-10-01T21:22:52.767Z,12.23
2022-10-01T21:25:35.657Z,12.10
2022-10-01T21:28:23.408Z,12.14
2022-10-01T21:31:02.683Z,12.11
2022-10-01T21:33:34.012Z,12.03
2022-10-01T21:36:23.700Z,12.17
2022-10-01T21:39:09.095Z,12.15
2022-10-01T21:41:41.792Z,12.09
2022-10-01T21:44:27.130Z,12.10
2022-10-01T21:47:06.998Z,12.08
2022-10-01T21:50:01.083Z,12.09
2022-10-01T21:52:45.161Z,12.07
2022-10-01T21:55:23.293Z,12.06
2022-10-01T21:58:05.616Z,12.01
2022-10-01T22:00:32.634Z,11.97
2022-10-01T22:03:22.797Z,11.98
2022-10-01T22:06:04.168Z,12.01
2022-10-01T22:08:47.726Z,12.11
2022-10-01T22:11:19.547Z,12.02
2022-10-01T22:14:00.154Z,12.06
2022-10-01T22:16:31.627Z,12.10
2022-10-01T22:19:06.758Z,12.01
2022-10-01T22:21:44.610Z,12.00
2022-10-01T22:24:19.141Z,11.95
2022-10-01T22:26:54.451Z,11.88
2022-10-01T22:29:27.464Z,11.94
2022-10-01T22:32:01.046Z,11.91
2022-10-01T22:34:37.221Z,11.97
2022-10-01T22:37:12.772Z,11.92
2022-10-01T22:39:43.507Z,11.95
2022-10-01T22:42:22.345Z,11.99
2022-10-01T22:44:48.793Z,12.00
2022-10-01T22:47:20.629Z,11.92
2022-10-01T22:50:01.174Z,11.97
2022-10-01T22:52:42.314Z,11.91
2022-10-01T22:55:38.625Z,11.78
2022-10-01T22:58:24.594Z,11.88
2022-10-01T23:01:08.130Z,11.85
2022-10-01T23:03:49.558Z,11.87
2022-10-01T23:06:31.590Z,11.80
2022-10-01T23:09:05.392Z,11.88
2022-10-01T23:11:56.817Z,11.89
2022-10-01T23:14:43.300Z,11.83
2022-10-01T23:17:14.434Z,11.81
2022-10-01T23:19:53.554Z,11.82
2022-10-01T23:22:44.653Z,11.83
2022-10-01T23:25:39.465Z,11.74
2022-10-01T23:28:45.303Z,11.77
2022-10-01T23:31:36.430Z,11.78
2022-10-01T23:34:24.882Z,11.74
2022-10-01T23:37:01.885Z,11.78
2022-10-01T23:39:43.198Z,11.82
2022-10-01T23:42:37.460Z,11.90
2022-10-01T23:45:15.855Z,11.91
2022-10-01T23:48:03.414Z,11.93
2022-10-01T23:50:40.109Z,11.88
2022-10-01T23:53:12.723Z,11.92
2022-10-01T23:56:22.911Z,11.93
2022-10-01T23:59:28.396Z,12.06
